sensor_id;sensor_type;location;lat;lon;timestamp;P1;durP1;ratioP1;P2;durP2;ratioP2
37831;SDS011;23671;38.090;-122.570;2023-07-20T00:02:29;1.90;;;1.80;;
37831;SDS011;23671;38.090;-122.570;2023-07-20T00:05:11;3.22;;;2.47;;
37831;SDS011;23671;38.090;-122.570;2023-07-20T00:07:46;2.53;;;2.30;;
37831;SDS011;23671;38.090;-122.570;2023-07-20T00:10:17;5.00;;;2.83;;
37831;SDS011;23671;38.090;-122.570;2023-07-20T00:12:47;2.40;;;2.05;;
37831;SDS011;23671;38.090;-122.570;2023-07-20T00:15:22;3.03;;;2.45;;
37831;SDS011;23671;38.090;-122.570;2023-07-20T00:17:49;3.20;;;2.47;;
37831;SDS011;23671;38.090;-122.570;2023-07-20T00:20:19;2.95;;;2.13;;
37831;SDS011;23671;38.090;-122.570;2023-07-20T00:22:48;3.70;;;2.47;;
37831;SDS011;23671;38.090;-122.570;2023-07-20T00:25:21;3.72;;;2.22;;
37831;SDS011;23671;38.090;-122.570;2023-07-20T00:27:48;4.03;;;2.58;;
37831;SDS011;23671;38.090;-122.570;2023-07-20T00:30:16;3.08;;;2.10;;
37831;SDS011;23671;38.090;-122.570;2023-07-20T00:32:43;2.97;;;2.30;;
37831;SDS011;23671;38.090;-122.570;2023-07-20T00:35:13;3.17;;;2.28;;
37831;SDS011;23671;38.090;-122.570;2023-07-20T00:37:41;2.78;;;2.08;;
37831;SDS011;23671;38.090;-122.570;2023-07-20T00:40:17;3.08;;;2.22;;
37831;SDS011;23671;38.090;-122.570;2023-07-20T00:42:44;2.45;;;2.10;;
37831;SDS011;23671;38.090;-122.570;2023-07-20T00:45:14;3.10;;;2.00;;
37831;SDS011;23671;38.090;-122.570;2023-07-20T00:47:45;2.15;;;2.05;;
37831;SDS011;23671;38.090;-122.570;2023-07-20T00:50:35;2.75;;;2.30;;
37831;SDS011;23671;38.090;-122.570;2023-07-20T00:53:08;2.67;;;2.40;;
37831;SDS011;23671;38.090;-122.570;2023-07-20T00:55:36;3.47;;;2.83;;
37831;SDS011;23671;38.090;-122.570;2023-07-20T00:58:06;2.63;;;2.38;;
37831;SDS011;23671;38.090;-122.570;2023-07-20T01:00:37;3.47;;;2.77;;
37831;SDS011;23671;38.090;-122.570;2023-07-20T01:03:04;4.72;;;2.45;;
37831;SDS011;23671;38.090;-122.570;2023-07-20T01:08:32;5.13;;;2.85;;
37831;SDS011;23671;38.090;-122.570;2023-07-20T01:11:13;3.97;;;2.80;;
37831;SDS011;23671;38.090;-122.570;2023-07-20T01:13:54;5.05;;;3.00;;
37831;SDS011;23671;38.090;-122.570;2023-07-20T01:16:22;3.70;;;2.80;;
37831;SDS011;23671;38.090;-122.570;2023-07-20T01:18:49;3.33;;;2.50;;
37831;SDS011;23671;38.090;-122.570;2023-07-20T01:21:29;4.22;;;2.85;;
37831;SDS011;23671;38.090;-122.570;2023-07-20T01:32:48;6.63;;;3.35;;
37831;SDS011;23671;38.090;-122.570;2023-07-20T01:35:19;8.30;;;3.13;;
37831;SDS011;23671;38.090;-122.570;2023-07-20T01:37:52;3.20;;;2.83;;
37831;SDS011;23671;38.090;-122.570;2023-07-20T01:42:48;4.67;;;3.37;;
37831;SDS011;23671;38.090;-122.570;2023-07-20T01:45:18;3.60;;;2.90;;
37831;SDS011;23671;38.090;-122.570;2023-07-20T01:47:49;3.80;;;3.17;;
37831;SDS011;23671;38.090;-122.570;2023-07-20T01:50:18;4.75;;;3.58;;
37831;SDS011;23671;38.090;-122.570;2023-07-20T01:53:03;4.40;;;3.40;;
37831;SDS011;23671;38.090;-122.570;2023-07-20T01:55:33;3.85;;;3.55;;
37831;SDS011;23671;38.090;-122.570;2023-07-20T01:58:00;5.40;;;3.80;;
37831;SDS011;23671;38.090;-122.570;2023-07-20T02:00:28;4.68;;;3.45;;
37831;SDS011;23671;38.090;-122.570;2023-07-20T02:02:58;4.35;;;3.38;;
37831;SDS011;23671;38.090;-122.570;2023-07-20T02:05:28;5.85;;;3.50;;
37831;SDS011;23671;38.090;-122.570;2023-07-20T02:07:59;3.90;;;3.50;;
37831;SDS011;23671;38.090;-122.570;2023-07-20T02:10:26;5.45;;;3.55;;
37831;SDS011;23671;38.090;-122.570;2023-07-20T02:13:02;5.10;;;3.38;;
37831;SDS011;23671;38.090;-122.570;2023-07-20T02:15:29;5.03;;;3.30;;
37831;SDS011;23671;38.090;-122.570;2023-07-20T02:17:57;7.03;;;3.33;;
37831;SDS011;23671;38.090;-122.570;2023-07-20T02:20:24;5.57;;;4.00;;
37831;SDS011;23671;38.090;-122.570;2023-07-20T02:22:54;5.25;;;3.90;;
37831;SDS011;23671;38.090;-122.570;2023-07-20T02:25:21;6.70;;;3.20;;
37831;SDS011;23671;38.090;-122.570;2023-07-20T02:27:48;3.97;;;3.22;;
37831;SDS011;23671;38.090;-122.570;2023-07-20T02:30:16;6.72;;;3.65;;
37831;SDS011;23671;38.090;-122.570;2023-07-20T02:32:43;5.93;;;3.55;;
37831;SDS011;23671;38.090;-122.570;2023-07-20T02:35:16;5.40;;;3.60;;
37831;SDS011;23671;38.090;-122.570;2023-07-20T02:37:44;4.20;;;3.05;;
37831;SDS011;23671;38.090;-122.570;2023-07-20T02:40:14;5.15;;;3.40;;
37831;SDS011;23671;38.090;-122.570;2023-07-20T02:42:50;5.40;;;3.70;;
37831;SDS011;23671;38.090;-122.570;2023-07-20T02:45:26;6.53;;;3.40;;
37831;SDS011;23671;38.090;-122.570;2023-07-20T02:47:56;7.20;;;3.88;;
37831;SDS011;23671;38.090;-122.570;2023-07-20T02:50:26;4.97;;;3.15;;
37831;SDS011;23671;38.090;-122.570;2023-07-20T02:52:53;5.30;;;3.47;;
37831;SDS011;23671;38.090;-122.570;2023-07-20T02:55:21;4.47;;;3.22;;
37831;SDS011;23671;38.090;-122.570;2023-07-20T02:57:48;4.47;;;3.20;;
37831;SDS011;23671;38.090;-122.570;2023-07-20T03:00:18;6.93;;;3.42;;
37831;SDS011;23671;38.090;-122.570;2023-07-20T03:02:46;7.53;;;4.03;;
37831;SDS011;23671;38.090;-122.570;2023-07-20T03:05:17;5.33;;;3.17;;
37831;SDS011;23671;38.090;-122.570;2023-07-20T03:07:44;5.40;;;3.60;;
37831;SDS011;23671;38.090;-122.570;2023-07-20T03:10:14;5.53;;;3.60;;
37831;SDS011;23671;38.090;-122.570;2023-07-20T03:12:42;5.53;;;3.92;;
37831;SDS011;23671;38.090;-122.570;2023-07-20T03:15:09;7.05;;;3.58;;
37831;SDS011;23671;38.090;-122.570;2023-07-20T03:17:36;6.05;;;3.45;;
37831;SDS011;23671;38.090;-122.570;2023-07-20T03:20:04;6.47;;;3.92;;
37831;SDS011;23671;38.090;-122.570;2023-07-20T03:22:34;6.93;;;3.72;;
37831;SDS011;23671;38.090;-122.570;2023-07-20T03:25:02;6.68;;;3.88;;
37831;SDS011;23671;38.090;-122.570;2023-07-20T03:27:33;7.90;;;3.95;;
37831;SDS011;23671;38.090;-122.570;2023-07-20T03:30:03;7.95;;;3.58;;
37831;SDS011;23671;38.090;-122.570;2023-07-20T03:32:32;6.15;;;4.18;;
37831;SDS011;23671;38.090;-122.570;2023-07-20T03:34:59;7.47;;;4.00;;
37831;SDS011;23671;38.090;-122.570;2023-07-20T03:37:30;5.53;;;3.40;;
37831;SDS011;23671;38.090;-122.570;2023-07-20T03:39:57;8.35;;;4.47;;
37831;SDS011;23671;38.090;-122.570;2023-07-20T03:42:26;8.85;;;3.97;;
37831;SDS011;23671;38.090;-122.570;2023-07-20T03:44:54;7.10;;;4.45;;
37831;SDS011;23671;38.090;-122.570;2023-07-20T03:47:24;7.72;;;4.40;;
37831;SDS011;23671;38.090;-122.570;2023-07-20T03:49:54;13.15;;;4.75;;
37831;SDS011;23671;38.090;-122.570;2023-07-20T03:52:21;7.90;;;4.55;;
37831;SDS011;23671;38.090;-122.570;2023-07-20T03:54:49;8.45;;;4.35;;
37831;SDS011;23671;38.090;-122.570;2023-07-20T03:57:19;8.98;;;4.53;;
37831;SDS011;23671;38.090;-122.570;2023-07-20T03:59:48;16.33;;;11.13;;
37831;SDS011;23671;38.090;-122.570;2023-07-20T04:02:15;11.02;;;6.53;;
37831;SDS011;23671;38.090;-122.570;2023-07-20T04:04:42;10.20;;;5.05;;
37831;SDS011;23671;38.090;-122.570;2023-07-20T04:07:09;9.27;;;5.10;;
37831;SDS011;23671;38.090;-122.570;2023-07-20T04:09:37;7.55;;;5.13;;
37831;SDS011;23671;38.090;-122.570;2023-07-20T04:12:04;12.80;;;5.43;;
37831;SDS011;23671;38.090;-122.570;2023-07-20T04:14:31;8.38;;;4.68;;
37831;SDS011;23671;38.090;-122.570;2023-07-20T04:16:59;8.57;;;5.50;;
37831;SDS011;23671;38.090;-122.570;2023-07-20T04:19:26;8.57;;;4.90;;
37831;SDS011;23671;38.090;-122.570;2023-07-20T04:21:53;7.75;;;4.97;;
37831;SDS011;23671;38.090;-122.570;2023-07-20T04:24:20;9.57;;;4.90;;
37831;SDS011;23671;38.090;-122.570;2023-07-20T04:26:47;11.85;;;5.13;;
37831;SDS011;23671;38.090;-122.570;2023-07-20T04:29:14;10.50;;;5.13;;
37831;SDS011;23671;38.090;-122.570;2023-07-20T04:31:41;11.93;;;5.47;;
37831;SDS011;23671;38.090;-122.570;2023-07-20T04:34:08;7.90;;;5.30;;
37831;SDS011;23671;38.090;-122.570;2023-07-20T04:36:36;9.43;;;5.05;;
37831;SDS011;23671;38.090;-122.570;2023-07-20T04:39:03;9.63;;;5.13;;
37831;SDS011;23671;38.090;-122.570;2023-07-20T04:41:33;7.78;;;4.75;;
37831;SDS011;23671;38.090;-122.570;2023-07-20T04:44:01;8.45;;;4.80;;
37831;SDS011;23671;38.090;-122.570;2023-07-20T04:46:28;7.82;;;4.82;;
37831;SDS011;23671;38.090;-122.570;2023-07-20T04:48:55;10.02;;;4.90;;
37831;SDS011;23671;38.090;-122.570;2023-07-20T04:51:23;9.02;;;4.43;;
37831;SDS011;23671;38.090;-122.570;2023-07-20T04:53:50;8.55;;;4.75;;
37831;SDS011;23671;38.090;-122.570;2023-07-20T04:56:17;8.73;;;4.65;;
37831;SDS011;23671;38.090;-122.570;2023-07-20T04:58:44;8.95;;;4.80;;
37831;SDS011;23671;38.090;-122.570;2023-07-20T05:01:12;7.32;;;4.03;;
37831;SDS011;23671;38.090;-122.570;2023-07-20T05:03:39;8.80;;;5.03;;
37831;SDS011;23671;38.090;-122.570;2023-07-20T05:06:06;10.50;;;4.50;;
37831;SDS011;23671;38.090;-122.570;2023-07-20T05:08:33;7.60;;;4.28;;
37831;SDS011;23671;38.090;-122.570;2023-07-20T05:11:00;8.50;;;4.88;;
37831;SDS011;23671;38.090;-122.570;2023-07-20T05:13:27;8.82;;;4.50;;
37831;SDS011;23671;38.090;-122.570;2023-07-20T05:15:55;7.32;;;4.05;;
37831;SDS011;23671;38.090;-122.570;2023-07-20T05:18:22;10.05;;;4.47;;
37831;SDS011;23671;38.090;-122.570;2023-07-20T05:20:50;8.30;;;3.90;;
37831;SDS011;23671;38.090;-122.570;2023-07-20T05:23:21;8.75;;;4.50;;
37831;SDS011;23671;38.090;-122.570;2023-07-20T05:25:55;9.25;;;4.93;;
37831;SDS011;23671;38.090;-122.570;2023-07-20T05:28:26;8.35;;;4.47;;
37831;SDS011;23671;38.090;-122.570;2023-07-20T05:30:53;6.75;;;3.65;;
37831;SDS011;23671;38.090;-122.570;2023-07-20T05:35:48;7.97;;;4.93;;
37831;SDS011;23671;38.090;-122.570;2023-07-20T05:38:16;6.72;;;3.80;;
37831;SDS011;23671;38.090;-122.570;2023-07-20T05:40:43;7.20;;;4.57;;
37831;SDS011;23671;38.090;-122.570;2023-07-20T05:43:12;10.05;;;4.60;;
37831;SDS011;23671;38.090;-122.570;2023-07-20T05:45:42;6.50;;;4.43;;
37831;SDS011;23671;38.090;-122.570;2023-07-20T05:48:10;8.38;;;4.28;;
37831;SDS011;23671;38.090;-122.570;2023-07-20T05:50:47;9.60;;;5.10;;
37831;SDS011;23671;38.090;-122.570;2023-07-20T05:53:14;7.00;;;4.20;;
37831;SDS011;23671;38.090;-122.570;2023-07-20T05:55:42;8.70;;;4.65;;
37831;SDS011;23671;38.090;-122.570;2023-07-20T05:58:09;7.38;;;4.50;;
37831;SDS011;23671;38.090;-122.570;2023-07-20T06:00:36;8.38;;;4.38;;
37831;SDS011;23671;38.090;-122.570;2023-07-20T06:03:03;6.35;;;3.92;;
37831;SDS011;23671;38.090;-122.570;2023-07-20T06:05:30;5.68;;;3.42;;
37831;SDS011;23671;38.090;-122.570;2023-07-20T06:07:57;7.80;;;3.88;;
37831;SDS011;23671;38.090;-122.570;2023-07-20T06:10:25;6.78;;;4.38;;
37831;SDS011;23671;38.090;-122.570;2023-07-20T06:12:53;6.30;;;3.95;;
37831;SDS011;23671;38.090;-122.570;2023-07-20T06:15:25;6.97;;;4.05;;
37831;SDS011;23671;38.090;-122.570;2023-07-20T06:17:54;7.80;;;3.90;;
37831;SDS011;23671;38.090;-122.570;2023-07-20T06:20:23;7.38;;;4.18;;
37831;SDS011;23671;38.090;-122.570;2023-07-20T06:22:50;7.85;;;4.20;;
37831;SDS011;23671;38.090;-122.570;2023-07-20T06:25:17;8.18;;;4.28;;
37831;SDS011;23671;38.090;-122.570;2023-07-20T06:27:46;8.75;;;4.47;;
37831;SDS011;23671;38.090;-122.570;2023-07-20T06:30:14;9.02;;;4.45;;
37831;SDS011;23671;38.090;-122.570;2023-07-20T06:32:42;10.35;;;4.38;;
37831;SDS011;23671;38.090;-122.570;2023-07-20T06:35:09;7.47;;;4.20;;
37831;SDS011;23671;38.090;-122.570;2023-07-20T06:37:36;9.95;;;4.35;;
37831;SDS011;23671;38.090;-122.570;2023-07-20T06:40:03;7.13;;;4.05;;
37831;SDS011;23671;38.090;-122.570;2023-07-20T06:42:31;9.23;;;4.30;;
37831;SDS011;23671;38.090;-122.570;2023-07-20T06:44:58;12.27;;;4.53;;
37831;SDS011;23671;38.090;-122.570;2023-07-20T06:47:25;11.23;;;4.85;;
37831;SDS011;23671;38.090;-122.570;2023-07-20T06:49:53;6.78;;;4.50;;
37831;SDS011;23671;38.090;-122.570;2023-07-20T06:52:20;7.47;;;4.07;;
37831;SDS011;23671;38.090;-122.570;2023-07-20T06:54:47;9.52;;;4.55;;
37831;SDS011;23671;38.090;-122.570;2023-07-20T06:57:14;8.25;;;4.18;;
37831;SDS011;23671;38.090;-122.570;2023-07-20T06:59:41;9.25;;;4.00;;
37831;SDS011;23671;38.090;-122.570;2023-07-20T07:02:08;8.77;;;4.47;;
37831;SDS011;23671;38.090;-122.570;2023-07-20T07:04:35;7.57;;;4.28;;
37831;SDS011;23671;38.090;-122.570;2023-07-20T07:07:02;9.32;;;5.00;;
37831;SDS011;23671;38.090;-122.570;2023-07-20T07:09:29;6.30;;;4.10;;
37831;SDS011;23671;38.090;-122.570;2023-07-20T07:11:57;8.75;;;4.28;;
37831;SDS011;23671;38.090;-122.570;2023-07-20T07:14:24;9.32;;;5.45;;
37831;SDS011;23671;38.090;-122.570;2023-07-20T07:16:51;7.80;;;4.20;;
37831;SDS011;23671;38.090;-122.570;2023-07-20T07:19:18;10.13;;;4.65;;
37831;SDS011;23671;38.090;-122.570;2023-07-20T07:21:45;9.18;;;4.47;;
37831;SDS011;23671;38.090;-122.570;2023-07-20T07:24:16;9.18;;;4.90;;
37831;SDS011;23671;38.090;-122.570;2023-07-20T07:26:43;9.55;;;4.95;;
37831;SDS011;23671;38.090;-122.570;2023-07-20T07:29:10;8.88;;;4.60;;
37831;SDS011;23671;38.090;-122.570;2023-07-20T07:31:37;7.18;;;4.75;;
37831;SDS011;23671;38.090;-122.570;2023-07-20T07:34:04;8.15;;;4.55;;
37831;SDS011;23671;38.090;-122.570;2023-07-20T07:36:32;6.40;;;3.88;;
37831;SDS011;23671;38.090;-122.570;2023-07-20T07:38:59;7.05;;;4.03;;
37831;SDS011;23671;38.090;-122.570;2023-07-20T07:41:26;8.25;;;4.45;;
37831;SDS011;23671;38.090;-122.570;2023-07-20T07:43:53;8.30;;;4.43;;
37831;SDS011;23671;38.090;-122.570;2023-07-20T07:46:20;6.60;;;4.25;;
37831;SDS011;23671;38.090;-122.570;2023-07-20T07:48:50;7.60;;;4.30;;
37831;SDS011;23671;38.090;-122.570;2023-07-20T07:51:18;9.20;;;4.20;;
37831;SDS011;23671;38.090;-122.570;2023-07-20T07:53:46;7.85;;;4.15;;
37831;SDS011;23671;38.090;-122.570;2023-07-20T07:56:14;7.82;;;3.78;;
37831;SDS011;23671;38.090;-122.570;2023-07-20T07:58:42;9.65;;;5.10;;
37831;SDS011;23671;38.090;-122.570;2023-07-20T08:01:09;6.13;;;4.28;;
37831;SDS011;23671;38.090;-122.570;2023-07-20T08:03:36;7.93;;;4.10;;
37831;SDS011;23671;38.090;-122.570;2023-07-20T08:06:03;7.38;;;4.38;;
37831;SDS011;23671;38.090;-122.570;2023-07-20T08:08:31;8.57;;;4.20;;
37831;SDS011;23671;38.090;-122.570;2023-07-20T08:10:59;7.27;;;4.03;;
37831;SDS011;23671;38.090;-122.570;2023-07-20T08:13:26;8.13;;;4.38;;
37831;SDS011;23671;38.090;-122.570;2023-07-20T08:15:53;7.88;;;4.20;;
37831;SDS011;23671;38.090;-122.570;2023-07-20T08:18:20;7.68;;;4.68;;
37831;SDS011;23671;38.090;-122.570;2023-07-20T08:20:47;7.00;;;3.97;;
37831;SDS011;23671;38.090;-122.570;2023-07-20T08:23:14;7.90;;;4.45;;
37831;SDS011;23671;38.090;-122.570;2023-07-20T08:25:41;8.90;;;4.95;;
37831;SDS011;23671;38.090;-122.570;2023-07-20T08:28:13;5.90;;;4.15;;
37831;SDS011;23671;38.090;-122.570;2023-07-20T08:30:44;9.20;;;4.80;;
37831;SDS011;23671;38.090;-122.570;2023-07-20T08:33:14;7.25;;;4.38;;
37831;SDS011;23671;38.090;-122.570;2023-07-20T08:35:46;7.55;;;3.97;;
37831;SDS011;23671;38.090;-122.570;2023-07-20T08:38:13;6.28;;;3.72;;
37831;SDS011;23671;38.090;-122.570;2023-07-20T08:40:44;7.95;;;4.30;;
37831;SDS011;23671;38.090;-122.570;2023-07-20T08:43:12;6.82;;;3.90;;
37831;SDS011;23671;38.090;-122.570;2023-07-20T08:45:44;7.20;;;4.20;;
37831;SDS011;23671;38.090;-122.570;2023-07-20T08:48:12;8.20;;;4.40;;
37831;SDS011;23671;38.090;-122.570;2023-07-20T08:50:40;10.30;;;4.27;;
37831;SDS011;23671;38.090;-122.570;2023-07-20T08:53:08;9.60;;;4.88;;
37831;SDS011;23671;38.090;-122.570;2023-07-20T08:55:38;7.28;;;4.30;;
37831;SDS011;23671;38.090;-122.570;2023-07-20T08:58:08;8.27;;;4.65;;
37831;SDS011;23671;38.090;-122.570;2023-07-20T09:00:40;9.55;;;3.92;;
37831;SDS011;23671;38.090;-122.570;2023-07-20T09:03:08;5.93;;;4.00;;
37831;SDS011;23671;38.090;-122.570;2023-07-20T09:05:38;8.63;;;4.47;;
37831;SDS011;23671;38.090;-122.570;2023-07-20T09:08:05;8.00;;;4.45;;
37831;SDS011;23671;38.090;-122.570;2023-07-20T09:10:33;7.07;;;4.50;;
37831;SDS011;23671;38.090;-122.570;2023-07-20T09:13:00;7.95;;;3.78;;
37831;SDS011;23671;38.090;-122.570;2023-07-20T09:15:28;7.70;;;4.03;;
37831;SDS011;23671;38.090;-122.570;2023-07-20T09:17:56;7.28;;;4.18;;
37831;SDS011;23671;38.090;-122.570;2023-07-20T09:20:26;7.47;;;4.53;;
37831;SDS011;23671;38.090;-122.570;2023-07-20T09:22:56;8.52;;;4.57;;
37831;SDS011;23671;38.090;-122.570;2023-07-20T09:25:23;7.68;;;4.53;;
37831;SDS011;23671;38.090;-122.570;2023-07-20T09:27:52;7.72;;;4.30;;
37831;SDS011;23671;38.090;-122.570;2023-07-20T09:30:19;9.98;;;5.05;;
37831;SDS011;23671;38.090;-122.570;2023-07-20T09:32:51;9.32;;;4.50;;
37831;SDS011;23671;38.090;-122.570;2023-07-20T09:35:20;7.07;;;4.07;;
37831;SDS011;23671;38.090;-122.570;2023-07-20T09:37:53;7.90;;;4.22;;
37831;SDS011;23671;38.090;-122.570;2023-07-20T09:40:24;7.50;;;4.15;;
37831;SDS011;23671;38.090;-122.570;2023-07-20T09:42:53;8.43;;;4.40;;
37831;SDS011;23671;38.090;-122.570;2023-07-20T09:45:33;9.10;;;4.40;;
37831;SDS011;23671;38.090;-122.570;2023-07-20T09:48:05;10.40;;;4.43;;
37831;SDS011;23671;38.090;-122.570;2023-07-20T09:50:33;8.88;;;4.28;;
37831;SDS011;23671;38.090;-122.570;2023-07-20T09:53:06;7.07;;;3.92;;
37831;SDS011;23671;38.090;-122.570;2023-07-20T09:55:36;11.07;;;4.93;;
37831;SDS011;23671;38.090;-122.570;2023-07-20T09:58:05;6.70;;;3.70;;
37831;SDS011;23671;38.090;-122.570;2023-07-20T10:00:35;8.40;;;4.55;;
37831;SDS011;23671;38.090;-122.570;2023-07-20T10:03:04;8.00;;;4.43;;
37831;SDS011;23671;38.090;-122.570;2023-07-20T10:05:35;7.72;;;4.60;;
37831;SDS011;23671;38.090;-122.570;2023-07-20T10:08:11;7.13;;;3.92;;
37831;SDS011;23671;38.090;-122.570;2023-07-20T10:10:41;7.82;;;3.95;;
37831;SDS011;23671;38.090;-122.570;2023-07-20T10:13:10;7.28;;;4.38;;
37831;SDS011;23671;38.090;-122.570;2023-07-20T10:15:49;5.60;;;3.90;;
37831;SDS011;23671;38.090;-122.570;2023-07-20T10:18:31;6.93;;;4.30;;
37831;SDS011;23671;38.090;-122.570;2023-07-20T10:20:59;5.78;;;4.07;;
37831;SDS011;23671;38.090;-122.570;2023-07-20T10:23:30;6.90;;;4.00;;
37831;SDS011;23671;38.090;-122.570;2023-07-20T10:25:58;8.90;;;3.92;;
37831;SDS011;23671;38.090;-122.570;2023-07-20T10:28:27;6.97;;;4.35;;
37831;SDS011;23671;38.090;-122.570;2023-07-20T10:30:54;6.88;;;4.18;;
37831;SDS011;23671;38.090;-122.570;2023-07-20T10:33:21;8.52;;;4.88;;
37831;SDS011;23671;38.090;-122.570;2023-07-20T10:35:56;5.60;;;4.22;;
37831;SDS011;23671;38.090;-122.570;2023-07-20T10:38:38;8.55;;;4.30;;
37831;SDS011;23671;38.090;-122.570;2023-07-20T10:41:21;8.85;;;4.47;;
37831;SDS011;23671;38.090;-122.570;2023-07-20T10:44:04;11.32;;;4.18;;
37831;SDS011;23671;38.090;-122.570;2023-07-20T10:49:06;8.13;;;4.28;;
37831;SDS011;23671;38.090;-122.570;2023-07-20T10:51:47;8.07;;;4.63;;
37831;SDS011;23671;38.090;-122.570;2023-07-20T10:56:48;6.80;;;3.90;;
37831;SDS011;23671;38.090;-122.570;2023-07-20T11:01:55;8.55;;;4.75;;
37831;SDS011;23671;38.090;-122.570;2023-07-20T11:05:01;7.20;;;4.18;;
37831;SDS011;23671;38.090;-122.570;2023-07-20T11:07:37;7.10;;;4.28;;
37831;SDS011;23671;38.090;-122.570;2023-07-20T11:10:14;7.75;;;4.57;;
37831;SDS011;23671;38.090;-122.570;2023-07-20T11:16:04;7.90;;;4.82;;
37831;SDS011;23671;38.090;-122.570;2023-07-20T11:18:27;6.32;;;3.85;;
37831;SDS011;23671;38.090;-122.570;2023-07-20T11:20:55;9.05;;;4.47;;
37831;SDS011;23671;38.090;-122.570;2023-07-20T11:23:23;7.03;;;4.60;;
37831;SDS011;23671;38.090;-122.570;2023-07-20T11:25:50;9.13;;;4.38;;
37831;SDS011;23671;38.090;-122.570;2023-07-20T11:28:17;8.27;;;4.57;;
37831;SDS011;23671;38.090;-122.570;2023-07-20T11:30:44;10.52;;;4.50;;
37831;SDS011;23671;38.090;-122.570;2023-07-20T11:33:18;6.32;;;3.88;;
37831;SDS011;23671;38.090;-122.570;2023-07-20T11:35:46;8.75;;;4.53;;
37831;SDS011;23671;38.090;-122.570;2023-07-20T11:38:16;8.00;;;4.65;;
37831;SDS011;23671;38.090;-122.570;2023-07-20T11:40:44;7.18;;;4.20;;
37831;SDS011;23671;38.090;-122.570;2023-07-20T11:43:14;7.65;;;4.10;;
37831;SDS011;23671;38.090;-122.570;2023-07-20T11:45:41;7.28;;;3.60;;
37831;SDS011;23671;38.090;-122.570;2023-07-20T11:48:14;9.15;;;4.80;;
37831;SDS011;23671;38.090;-122.570;2023-07-20T11:50:41;7.07;;;4.32;;
37831;SDS011;23671;38.090;-122.570;2023-07-20T11:53:09;7.15;;;4.35;;
37831;SDS011;23671;38.090;-122.570;2023-07-20T11:55:36;6.90;;;3.85;;
37831;SDS011;23671;38.090;-122.570;2023-07-20T11:58:07;9.40;;;4.70;;
37831;SDS011;23671;38.090;-122.570;2023-07-20T12:00:36;6.13;;;3.72;;
37831;SDS011;23671;38.090;-122.570;2023-07-20T12:05:37;10.82;;;4.32;;
37831;SDS011;23671;38.090;-122.570;2023-07-20T12:08:07;8.13;;;4.78;;
37831;SDS011;23671;38.090;-122.570;2023-07-20T12:10:35;8.90;;;4.75;;
37831;SDS011;23671;38.090;-122.570;2023-07-20T12:13:12;8.93;;;4.43;;
37831;SDS011;23671;38.090;-122.570;2023-07-20T12:15:43;6.93;;;4.90;;
37831;SDS011;23671;38.090;-122.570;2023-07-20T12:18:10;7.35;;;4.40;;
37831;SDS011;23671;38.090;-122.570;2023-07-20T12:20:37;6.47;;;4.38;;
37831;SDS011;23671;38.090;-122.570;2023-07-20T12:23:11;8.18;;;4.13;;
37831;SDS011;23671;38.090;-122.570;2023-07-20T12:28:14;6.55;;;3.70;;
37831;SDS011;23671;38.090;-122.570;2023-07-20T12:30:44;6.75;;;4.47;;
37831;SDS011;23671;38.090;-122.570;2023-07-20T12:33:13;9.23;;;4.90;;
37831;SDS011;23671;38.090;-122.570;2023-07-20T12:35:41;7.28;;;4.47;;
37831;SDS011;23671;38.090;-122.570;2023-07-20T12:38:11;8.77;;;4.45;;
37831;SDS011;23671;38.090;-122.570;2023-07-20T12:40:38;10.07;;;4.68;;
37831;SDS011;23671;38.090;-122.570;2023-07-20T12:43:08;7.43;;;4.30;;
37831;SDS011;23671;38.090;-122.570;2023-07-20T12:45:35;7.00;;;4.28;;
37831;SDS011;23671;38.090;-122.570;2023-07-20T12:48:02;9.05;;;4.53;;
37831;SDS011;23671;38.090;-122.570;2023-07-20T12:50:29;8.50;;;4.75;;
37831;SDS011;23671;38.090;-122.570;2023-07-20T12:52:57;7.95;;;4.00;;
37831;SDS011;23671;38.090;-122.570;2023-07-20T12:55:24;7.40;;;4.43;;
37831;SDS011;23671;38.090;-122.570;2023-07-20T12:57:51;9.70;;;4.38;;
37831;SDS011;23671;38.090;-122.570;2023-07-20T13:00:18;9.27;;;4.60;;
37831;SDS011;23671;38.090;-122.570;2023-07-20T13:02:45;7.13;;;4.30;;
37831;SDS011;23671;38.090;-122.570;2023-07-20T13:05:12;7.07;;;4.13;;
37831;SDS011;23671;38.090;-122.570;2023-07-20T13:07:40;7.63;;;4.97;;
37831;SDS011;23671;38.090;-122.570;2023-07-20T13:10:08;11.35;;;4.97;;
37831;SDS011;23671;38.090;-122.570;2023-07-20T13:12:36;9.65;;;5.20;;
37831;SDS011;23671;38.090;-122.570;2023-07-20T13:15:05;7.78;;;4.03;;
37831;SDS011;23671;38.090;-122.570;2023-07-20T13:17:37;9.80;;;5.00;;
37831;SDS011;23671;38.090;-122.570;2023-07-20T13:20:05;9.60;;;4.70;;
37831;SDS011;23671;38.090;-122.570;2023-07-20T13:22:37;10.43;;;4.97;;
37831;SDS011;23671;38.090;-122.570;2023-07-20T13:25:04;9.25;;;4.70;;
37831;SDS011;23671;38.090;-122.570;2023-07-20T13:27:32;9.80;;;5.57;;
37831;SDS011;23671;38.090;-122.570;2023-07-20T13:30:00;8.35;;;5.00;;
37831;SDS011;23671;38.090;-122.570;2023-07-20T13:32:31;11.20;;;5.03;;
37831;SDS011;23671;38.090;-122.570;2023-07-20T13:34:59;9.93;;;5.68;;
37831;SDS011;23671;38.090;-122.570;2023-07-20T13:37:26;8.95;;;5.03;;
37831;SDS011;23671;38.090;-122.570;2023-07-20T13:39:54;11.52;;;4.95;;
37831;SDS011;23671;38.090;-122.570;2023-07-20T13:42:21;11.13;;;5.57;;
37831;SDS011;23671;38.090;-122.570;2023-07-20T13:44:48;10.52;;;4.82;;
37831;SDS011;23671;38.090;-122.570;2023-07-20T13:47:15;12.00;;;5.72;;
37831;SDS011;23671;38.090;-122.570;2023-07-20T13:49:43;8.50;;;4.47;;
37831;SDS011;23671;38.090;-122.570;2023-07-20T13:52:10;7.10;;;4.47;;
37831;SDS011;23671;38.090;-122.570;2023-07-20T13:54:37;12.18;;;5.43;;
37831;SDS011;23671;38.090;-122.570;2023-07-20T13:57:04;9.27;;;5.07;;
37831;SDS011;23671;38.090;-122.570;2023-07-20T13:59:31;8.95;;;5.13;;
37831;SDS011;23671;38.090;-122.570;2023-07-20T14:01:58;10.10;;;5.45;;
37831;SDS011;23671;38.090;-122.570;2023-07-20T14:04:25;9.95;;;5.38;;
37831;SDS011;23671;38.090;-122.570;2023-07-20T14:06:52;11.30;;;5.03;;
37831;SDS011;23671;38.090;-122.570;2023-07-20T14:09:19;9.90;;;5.32;;
37831;SDS011;23671;38.090;-122.570;2023-07-20T14:11:46;10.38;;;5.07;;
37831;SDS011;23671;38.090;-122.570;2023-07-20T14:14:14;10.57;;;5.30;;
37831;SDS011;23671;38.090;-122.570;2023-07-20T14:16:41;9.25;;;5.18;;
37831;SDS011;23671;38.090;-122.570;2023-07-20T14:19:11;10.25;;;5.10;;
37831;SDS011;23671;38.090;-122.570;2023-07-20T14:21:41;8.18;;;4.93;;
37831;SDS011;23671;38.090;-122.570;2023-07-20T14:24:14;9.73;;;5.47;;
37831;SDS011;23671;38.090;-122.570;2023-07-20T14:26:41;8.57;;;5.10;;
37831;SDS011;23671;38.090;-122.570;2023-07-20T14:29:21;10.60;;;5.72;;
37831;SDS011;23671;38.090;-122.570;2023-07-20T14:31:57;10.48;;;5.43;;
37831;SDS011;23671;38.090;-122.570;2023-07-20T14:34:27;9.38;;;5.15;;
37831;SDS011;23671;38.090;-122.570;2023-07-20T14:36:58;11.50;;;4.93;;
37831;SDS011;23671;38.090;-122.570;2023-07-20T14:39:29;10.38;;;5.20;;
37831;SDS011;23671;38.090;-122.570;2023-07-20T14:42:03;10.38;;;5.50;;
37831;SDS011;23671;38.090;-122.570;2023-07-20T14:44:33;12.60;;;5.63;;
37831;SDS011;23671;38.090;-122.570;2023-07-20T14:47:03;11.30;;;6.05;;
37831;SDS011;23671;38.090;-122.570;2023-07-20T14:49:30;11.60;;;5.25;;
37831;SDS011;23671;38.090;-122.570;2023-07-20T14:52:06;9.70;;;5.07;;